Pleasant Hill, Tennessee
Current Conditions -  °F | °C
As of 11:53 AM on Friday 31 Oct 2014 (Local Time) from KCSV Reporting Station
Overcast Overcast  
Wind Chill: 46°   Ceiling: 3600
Heat Index: 49°   Visibility: 10mi
Dew Point: 42°   Wind: 7mph
Humidity: 77%   Direction: 320°NW
Pressure: 29.97"   Gusts: NA
Location:  35.98°N, 85.19°W
Report Text: KCSV 311653Z AUTO 32006KT 10SM OVC036 09/06 A2997 RMK AO2 RAB13E47 SLP148 P0001 T00940056
Loading
Personal Weather Stations






























Interactive Weather Map
Tropical Storm Tracking
New forecast layout! Learn more

10-Day Weather Forecast

Advertisements
Track Severe Weather on mobile